createdAt,value
2022-11-29T00:01:22.891Z,99504.06
2022-11-29T00:03:49.989Z,99508.19
2022-11-29T00:06:20.076Z,99508.63
2022-11-29T00:08:48.079Z,99507.38
2022-11-29T00:11:19.925Z,99504.50
2022-11-29T00:13:46.742Z,99511.34
2022-11-29T00:16:13.589Z,99507.63
2022-11-29T00:18:40.415Z,99507.63
2022-11-29T00:21:09.036Z,99511.16
2022-11-29T00:23:36.339Z,99513.56
2022-11-29T00:26:05.290Z,99514.38
2022-11-29T00:28:35.775Z,99518.34
2022-11-29T00:31:15.284Z,99506.13
2022-11-29T00:33:42.582Z,99508.44
2022-11-29T00:36:10.069Z,99515.91
2022-11-29T00:38:37.203Z,99508.66
2022-11-29T00:41:04.783Z,99510.94
2022-11-29T00:43:33.576Z,99513.44
2022-11-29T00:46:00.787Z,99504.53
2022-11-29T00:48:27.937Z,99511.56
2022-11-29T00:50:55.032Z,99515.66
2022-11-29T00:53:21.942Z,99513.38
2022-11-29T00:55:50.156Z,99516.28
2022-11-29T00:58:17.526Z,99510.50
2022-11-29T01:00:45.776Z,99517.53
2022-11-29T01:03:12.649Z,99510.69
2022-11-29T01:05:40.162Z,99516.91
2022-11-29T01:08:07.222Z,99511.13
2022-11-29T01:10:34.101Z,99523.13
2022-11-29T01:13:00.989Z,99522.13
2022-11-29T01:15:28.732Z,99516.53
2022-11-29T01:17:57.012Z,99523.56
2022-11-29T01:20:24.304Z,99528.34
2022-11-29T01:22:51.748Z,99516.94
2022-11-29T01:25:18.915Z,99520.66
2022-11-29T01:27:46.080Z,99525.63
2022-11-29T01:30:14.369Z,99526.88
2022-11-29T01:32:42.071Z,99528.31
2022-11-29T01:35:10.571Z,99526.66
2022-11-29T01:37:37.727Z,99531.00
2022-11-29T01:40:07.129Z,99523.34
2022-11-29T01:42:34.076Z,99524.81
2022-11-29T01:45:07.950Z,99523.56
2022-11-29T01:47:45.877Z,99516.94
2022-11-29T01:50:14.881Z,99526.41
2022-11-29T01:52:42.266Z,99530.50
2022-11-29T01:55:10.113Z,99524.00
2022-11-29T01:57:41.349Z,99524.59
2022-11-29T02:00:13.334Z,99518.34
2022-11-29T02:02:45.184Z,99513.22
2022-11-29T02:05:18.463Z,99518.16
2022-11-29T02:07:49.658Z,99519.47
2022-11-29T02:10:17.937Z,99517.63
2022-11-29T02:13:00.584Z,99525.06
2022-11-29T02:15:42.614Z,99516.00
2022-11-29T02:18:14.844Z,99522.25
2022-11-29T02:21:16.519Z,99518.50
2022-11-29T02:24:55.944Z,99526.81
2022-11-29T02:28:18.207Z,99529.50
2022-11-29T02:31:26.583Z,99521.69
2022-11-29T02:34:28.164Z,99517.13
2022-11-29T02:37:22.216Z,99523.53
2022-11-29T02:40:16.610Z,99529.75
2022-11-29T02:43:22.320Z,99521.88
2022-11-29T02:46:13.364Z,99523.53
2022-11-29T02:49:00.493Z,99523.94
2022-11-29T02:51:42.830Z,99531.38
2022-11-29T02:54:25.786Z,99531.78
2022-11-29T02:57:01.954Z,99532.63
2022-11-29T02:59:47.655Z,99532.63
2022-11-29T03:02:28.788Z,99528.06
2022-11-29T03:05:09.685Z,99534.09
2022-11-29T03:07:53.583Z,99527.22
2022-11-29T03:10:38.638Z,99534.88
2022-11-29T03:13:20.018Z,99540.88
2022-11-29T03:15:58.747Z,99546.25
2022-11-29T03:18:39.621Z,99548.94
2022-11-29T03:21:18.773Z,99546.69
2022-11-29T03:23:52.541Z,99542.16
2022-11-29T03:26:30.063Z,99549.13
2022-11-29T03:29:06.413Z,99538.94
2022-11-29T03:31:42.316Z,99543.94
2022-11-29T03:34:22.956Z,99543.34
2022-11-29T03:37:01.161Z,99541.06
2022-11-29T03:39:48.684Z,99547.28
2022-11-29T03:42:24.628Z,99552.88
2022-11-29T03:45:03.391Z,99549.53
2022-11-29T03:47:40.212Z,99547.47
2022-11-29T03:50:16.423Z,99560.75
2022-11-29T03:52:53.427Z,99563.47
2022-11-29T03:55:45.076Z,99564.06
2022-11-29T03:58:31.968Z,99555.19
2022-11-29T04:01:29.129Z,99567.38
2022-11-29T04:04:43.433Z,99562.19
2022-11-29T04:07:40.746Z,99566.31
2022-11-29T04:10:30.739Z,99566.75
2022-11-29T04:13:57.316Z,99566.34
2022-11-29T04:17:04.216Z,99564.69
2022-11-29T04:20:22.805Z,99568.66
2022-11-29T04:23:56.480Z,99569.69
2022-11-29T04:27:22.425Z,99576.75
2022-11-29T04:30:10.723Z,99577.22
2022-11-29T04:33:28.405Z,99573.94
2022-11-29T04:36:23.707Z,99578.91
2022-11-29T04:39:33.041Z,99584.31
2022-11-29T04:42:36.579Z,99579.53
2022-11-29T04:45:48.507Z,99591.72
2022-11-29T04:48:51.094Z,99587.81
2022-11-29T04:51:39.866Z,99590.28
2022-11-29T04:54:19.602Z,99591.56
2022-11-29T04:56:51.507Z,99599.44
2022-11-29T04:59:27.880Z,99601.09
2022-11-29T05:02:10.420Z,99597.16
2022-11-29T05:04:53.097Z,99609.81
2022-11-29T05:07:37.301Z,99607.53
2022-11-29T05:10:26.066Z,99613.75
2022-11-29T05:13:09.362Z,99611.06
2022-11-29T05:16:06.501Z,99610.00
2022-11-29T05:19:28.492Z,99612.69
2022-11-29T05:22:19.416Z,99611.06
2022-11-29T05:25:00.744Z,99622.63
2022-11-29T05:27:43.243Z,99616.22
2022-11-29T05:30:15.142Z,99619.34
2022-11-29T05:32:57.509Z,99620.78
2022-11-29T05:36:07.006Z,99624.88
2022-11-29T05:39:06.421Z,99625.06
2022-11-29T05:42:06.761Z,99621.56
2022-11-29T05:44:43.336Z,99623.22
2022-11-29T05:47:17.576Z,99629.66
2022-11-29T05:49:59.973Z,99627.97
2022-11-29T05:52:44.721Z,99636.25
2022-11-29T05:55:31.860Z,99627.16
2022-11-29T05:58:10.905Z,99625.47
2022-11-29T06:00:50.052Z,99641.22
2022-11-29T06:03:34.887Z,99639.53
2022-11-29T06:06:12.828Z,99642.03
2022-11-29T06:08:51.474Z,99647.22
2022-11-29T06:11:27.731Z,99638.72
2022-11-29T06:18:30.402Z,99650.94
2022-11-29T06:21:17.128Z,99651.13
2022-11-29T06:24:14.572Z,99656.53
2022-11-29T06:27:03.654Z,99667.28
2022-11-29T06:29:43.805Z,99665.44
2022-11-29T06:32:30.214Z,99665.44
2022-11-29T06:35:04.602Z,99671.22
2022-11-29T06:37:39.692Z,99662.03
2022-11-29T06:40:14.096Z,99671.78
2022-11-29T06:42:41.709Z,99670.69
2022-11-29T06:45:13.149Z,99674.88
2022-11-29T06:47:46.238Z,99682.94
2022-11-29T06:50:36.594Z,99675.66
2022-11-29T06:53:17.680Z,99677.75
2022-11-29T06:55:56.669Z,99685.47
2022-11-29T06:58:51.305Z,99682.59
2022-11-29T07:01:33.456Z,99694.00
2022-11-29T07:04:48.733Z,99689.66
2022-11-29T07:07:21.864Z,99695.03
2022-11-29T07:09:54.316Z,99698.72
2022-11-29T07:12:24.299Z,99701.66
2022-11-29T07:14:52.371Z,99703.72
2022-11-29T07:17:30.225Z,99707.50
2022-11-29T07:20:09.578Z,99709.75
2022-11-29T07:22:54.844Z,99713.69
2022-11-29T07:25:39.358Z,99707.50
2022-11-29T07:28:29.363Z,99708.16
2022-11-29T07:31:09.324Z,99714.78
2022-11-29T07:33:52.296Z,99713.34
2022-11-29T07:36:34.149Z,99718.53
2022-11-29T07:39:19.708Z,99715.25
2022-11-29T07:42:01.432Z,99724.84
2022-11-29T07:44:45.075Z,99721.56
2022-11-29T07:47:13.074Z,99723.00
2022-11-29T07:49:39.976Z,99714.69
2022-11-29T07:52:06.895Z,99728.75
2022-11-29T07:54:34.187Z,99734.09
2022-11-29T07:57:00.972Z,99733.28
2022-11-29T07:59:27.891Z,99734.28
2022-11-29T08:01:56.660Z,99729.94
2022-11-29T08:04:23.521Z,99737.19
2022-11-29T08:06:50.763Z,99736.38
2022-11-29T08:09:18.243Z,99739.88
2022-11-29T08:11:45.031Z,99736.97
2022-11-29T08:14:12.013Z,99745.25
2022-11-29T08:16:38.886Z,99745.25
2022-11-29T08:19:07.339Z,99747.34
2022-11-29T08:21:34.284Z,99747.34
2022-11-29T08:24:01.227Z,99758.72
2022-11-29T08:26:31.624Z,99758.97
2022-11-29T08:28:59.273Z,99756.06
2022-11-29T08:31:26.200Z,99757.53
2022-11-29T08:33:53.362Z,99753.97
2022-11-29T08:36:21.661Z,99759.56
2022-11-29T08:38:49.119Z,99764.50
2022-11-29T08:41:17.365Z,99765.53
2022-11-29T08:43:45.061Z,99760.56
2022-11-29T08:46:18.312Z,99762.19
2022-11-29T08:48:46.188Z,99771.13
2022-11-29T08:51:13.454Z,99771.97
2022-11-29T08:53:41.976Z,99771.50
2022-11-29T08:56:49.399Z,99772.94
2022-11-29T08:58:58.598Z,99763.41
2022-11-29T09:01:25.552Z,99776.63
2022-11-29T09:03:52.508Z,99773.75
2022-11-29T09:06:19.819Z,99780.38
2022-11-29T09:08:47.956Z,99779.38
2022-11-29T09:11:18.995Z,99792.81
2022-11-29T09:13:49.420Z,99795.28
2022-11-29T09:16:21.351Z,99789.69
2022-11-29T09:18:51.876Z,99800.25
2022-11-29T09:21:19.219Z,99796.72
2022-11-29T09:23:47.920Z,99803.53
2022-11-29T09:26:18.724Z,99800.00
2022-11-29T09:28:46.250Z,99803.97
2022-11-29T09:31:16.043Z,99807.88
2022-11-29T09:33:43.142Z,99809.19
2022-11-29T09:36:11.892Z,99811.44
2022-11-29T09:38:43.879Z,99812.47
2022-11-29T09:41:47.087Z,99811.03
2022-11-29T09:44:29.921Z,99821.88
2022-11-29T09:47:12.516Z,99820.25
2022-11-29T09:50:03.197Z,99821.34
2022-11-29T09:52:47.283Z,99815.09
2022-11-29T09:55:48.070Z,99818.44
2022-11-29T09:58:22.563Z,99831.50
2022-11-29T10:00:53.681Z,99825.72
2022-11-29T10:03:26.279Z,99826.53
2022-11-29T10:06:02.263Z,99832.91
2022-11-29T10:08:38.126Z,99834.78
2022-11-29T10:11:27.815Z,99833.16
2022-11-29T10:14:03.477Z,99825.72
2022-11-29T10:16:52.007Z,99836.91
2022-11-29T10:19:27.858Z,99836.91
2022-11-29T10:22:03.713Z,99833.00
2022-11-29T10:24:33.294Z,99831.97
2022-11-29T10:27:09.041Z,99836.72
2022-11-29T10:29:57.997Z,99829.44
2022-11-29T10:32:34.336Z,99829.88
2022-11-29T10:35:01.839Z,99824.69
2022-11-29T10:37:29.835Z,99833.34
2022-11-29T10:40:04.420Z,99830.06
2022-11-29T10:42:32.776Z,99829.22
2022-11-29T10:45:02.678Z,99832.75
2022-11-29T10:47:31.247Z,99829.94
2022-11-29T10:49:59.408Z,99834.09
2022-11-29T10:52:26.272Z,99825.81
2022-11-29T10:55:01.644Z,99831.56
2022-11-29T10:57:28.636Z,99831.34
2022-11-29T11:00:04.963Z,99829.69
2022-11-29T11:02:33.893Z,99829.94
2022-11-29T11:05:01.465Z,99828.50
2022-11-29T11:07:33.135Z,99828.03
2022-11-29T11:10:00.939Z,99828.69
2022-11-29T11:12:31.696Z,99828.50
2022-11-29T11:15:27.444Z,99833.09
2022-11-29T11:17:58.451Z,99824.22
2022-11-29T11:20:28.897Z,99822.75
2022-11-29T11:23:00.095Z,99826.50
2022-11-29T11:25:30.954Z,99825.06
2022-11-29T11:28:13.127Z,99817.22
2022-11-29T11:30:55.724Z,99834.19
2022-11-29T11:33:27.914Z,99833.38
2022-11-29T11:36:09.751Z,99832.97
2022-11-29T11:38:50.098Z,99827.41
2022-11-29T11:41:23.589Z,99826.84
2022-11-29T11:43:55.810Z,99832.66
2022-11-29T11:46:50.588Z,99822.91
2022-11-29T11:49:31.213Z,99828.13
2022-11-29T11:52:05.458Z,99835.34
2022-11-29T11:54:32.983Z,99833.50
2022-11-29T11:57:00.218Z,99830.59
2022-11-29T11:59:29.180Z,99836.19
2022-11-29T12:01:59.211Z,99844.44
2022-11-29T12:04:37.127Z,99849.69
2022-11-29T12:07:17.919Z,99846.53
2022-11-29T12:09:59.374Z,99852.97
2022-11-29T12:12:31.282Z,99852.97
2022-11-29T12:15:03.072Z,99853.78
2022-11-29T12:17:39.638Z,99853.78
2022-11-29T12:20:25.784Z,99854.63
2022-11-29T12:23:24.081Z,99855.22
2022-11-29T12:25:58.180Z,99862.66
2022-11-29T12:28:31.324Z,99860.63
2022-11-29T12:31:16.705Z,99870.34
2022-11-29T12:33:58.006Z,99870.16
2022-11-29T12:36:38.287Z,99868.91
2022-11-29T12:39:27.886Z,99869.16
2022-11-29T12:42:03.268Z,99874.53
2022-11-29T12:44:50.822Z,99874.94
2022-11-29T12:47:38.709Z,99863.97
2022-11-29T12:50:25.940Z,99872.06
2022-11-29T12:53:20.150Z,99871.00
2022-11-29T12:56:05.835Z,99872.06
2022-11-29T12:58:46.953Z,99873.44
2022-11-29T13:01:29.042Z,99865.78
2022-11-29T13:04:10.129Z,99870.75
2022-11-29T13:06:49.652Z,99870.25
2022-11-29T13:09:57.048Z,99871.09
2022-11-29T13:12:35.254Z,99877.63
2022-11-29T13:15:11.144Z,99878.47
2022-11-29T13:17:52.926Z,99881.75
2022-11-29T13:20:33.377Z,99888.84
2022-11-29T13:23:16.261Z,99886.38
2022-11-29T13:25:48.852Z,99885.16
2022-11-29T13:28:24.033Z,99887.06
2022-11-29T13:30:54.766Z,99884.56
2022-11-29T13:33:32.144Z,99882.09
2022-11-29T13:36:11.115Z,99889.06
2022-11-29T13:38:50.203Z,99878.88
2022-11-29T13:41:30.232Z,99885.91
2022-11-29T13:44:11.277Z,99885.31
2022-11-29T13:46:50.799Z,99884.88
2022-11-29T13:49:23.354Z,99882.38
2022-11-29T13:52:05.680Z,99880.97
2022-11-29T13:54:34.344Z,99890.06
2022-11-29T13:57:05.601Z,99890.72
2022-11-29T13:59:36.927Z,99897.94
2022-11-29T14:02:27.553Z,99895.91
2022-11-29T14:04:54.573Z,99897.56
2022-11-29T14:07:21.568Z,99905.84
2022-11-29T14:10:02.164Z,99901.69
2022-11-29T14:12:37.048Z,99897.94
2022-11-29T14:15:22.497Z,99899.19
2022-11-29T14:17:54.078Z,99896.28
2022-11-29T14:20:58.181Z,99899.00
2022-11-29T14:23:42.640Z,99893.78
2022-11-29T14:26:28.629Z,99900.44
2022-11-29T14:28:58.243Z,99901.69
2022-11-29T14:31:54.748Z,99909.75
2022-11-29T14:34:47.813Z,99908.91
2022-11-29T14:37:37.342Z,99902.91
2022-11-29T14:40:26.057Z,99903.13
2022-11-29T14:42:54.880Z,99907.47
2022-11-29T14:45:27.734Z,99916.78
2022-11-29T14:47:56.297Z,99911.19
2022-11-29T14:50:33.868Z,99907.47
2022-11-29T14:53:02.309Z,99911.81
2022-11-29T14:55:35.520Z,99917.41
2022-11-29T14:58:19.565Z,99916.97
2022-11-29T15:01:08.058Z,99924.22
2022-11-29T15:03:49.509Z,99924.41
2022-11-29T15:06:25.847Z,99927.31
2022-11-29T15:09:02.823Z,99933.72
2022-11-29T15:11:50.287Z,99936.41
2022-11-29T15:14:35.390Z,99937.25
2022-11-29T15:17:22.974Z,99937.25
2022-11-29T15:20:27.562Z,99938.28
2022-11-29T15:22:59.253Z,99946.56
2022-11-29T15:25:29.381Z,99939.31
2022-11-29T15:27:58.899Z,99937.66
2022-11-29T15:30:34.567Z,99941.75
2022-11-29T15:33:06.525Z,99945.81
2022-11-29T15:35:36.060Z,99942.91
2022-11-29T15:38:03.254Z,99944.59
2022-11-29T15:40:32.239Z,99956.56
2022-11-29T15:43:14.529Z,99952.88
2022-11-29T15:45:50.454Z,99956.00
2022-11-29T15:48:28.176Z,99958.69
2022-11-29T15:51:05.124Z,99960.19
2022-11-29T15:53:44.484Z,99970.75
2022-11-29T15:56:22.511Z,99974.25
2022-11-29T15:59:02.520Z,99976.97
2022-11-29T16:01:34.736Z,99964.13
2022-11-29T16:04:02.445Z,99975.75
2022-11-29T16:06:38.824Z,99980.09
2022-11-29T16:09:09.829Z,99977.41
2022-11-29T16:11:38.470Z,99970.97
2022-11-29T16:14:18.001Z,99969.53
2022-11-29T16:16:50.163Z,99969.31
2022-11-29T16:19:32.548Z,99974.53
2022-11-29T17:29:52.449Z,100026.09
2022-11-29T17:31:49.603Z,100029.72
2022-11-29T17:34:17.571Z,100030.06
2022-11-29T17:36:44.410Z,100030.75
2022-11-29T17:39:11.697Z,100030.25
2022-11-29T17:41:38.481Z,100021.84
2022-11-29T17:44:05.497Z,100032.16
2022-11-29T17:46:35.992Z,100031.34
2022-11-29T17:49:07.225Z,100035.50
2022-11-29T17:51:52.990Z,100041.81
2022-11-29T17:54:20.753Z,100035.22
2022-11-29T17:56:47.852Z,100043.38
2022-11-29T17:59:14.632Z,100044.66
2022-11-29T18:01:41.581Z,100045.97
2022-11-29T18:04:10.083Z,100049.34
2022-11-29T18:06:39.609Z,100053.88
2022-11-29T18:09:09.636Z,100054.81
2022-11-29T18:11:46.928Z,100053.91
2022-11-29T18:14:17.866Z,100048.06
2022-11-29T18:16:45.211Z,100046.03
2022-11-29T18:19:16.500Z,100051.94
2022-11-29T18:21:44.547Z,100046.94
2022-11-29T18:24:12.118Z,100055.28
2022-11-29T18:26:39.996Z,100049.59
2022-11-29T18:29:07.849Z,100052.38
2022-11-29T18:31:36.972Z,100057.00
2022-11-29T18:34:07.358Z,100057.28
2022-11-29T18:36:38.960Z,100063.50
2022-11-29T18:39:09.202Z,100056.44
2022-11-29T18:41:36.853Z,100054.22
2022-11-29T18:44:07.097Z,100056.53
2022-11-29T18:46:35.461Z,100060.81
2022-11-29T18:49:04.866Z,100066.66
2022-11-29T18:51:32.738Z,100062.72
2022-11-29T18:54:01.603Z,100077.88
2022-11-29T18:56:32.340Z,100068.78
2022-11-29T18:59:03.471Z,100075.47
2022-11-29T19:01:33.765Z,100085.41
2022-11-29T19:04:01.863Z,100074.66
2022-11-29T19:06:38.946Z,100084.56
2022-11-29T19:09:14.650Z,100087.25
2022-11-29T19:11:42.223Z,100087.44
2022-11-29T19:14:11.981Z,100087.25
2022-11-29T19:16:42.173Z,100084.56
2022-11-29T19:19:09.486Z,100088.91
2022-11-29T19:21:36.809Z,100093.31
2022-11-29T19:24:11.242Z,100093.84
2022-11-29T19:26:38.686Z,100092.66
2022-11-29T19:29:05.864Z,100088.91
2022-11-29T19:31:33.465Z,100081.19
2022-11-29T19:34:00.332Z,100072.50
2022-11-29T19:36:29.539Z,100075.00
2022-11-29T19:38:57.483Z,100074.53
2022-11-29T19:41:28.717Z,100074.34
2022-11-29T19:43:58.253Z,100084.56
2022-11-29T19:46:27.830Z,100078.81
2022-11-29T19:48:57.085Z,100083.81
2022-11-29T19:51:27.178Z,100077.78
2022-11-29T19:53:56.907Z,100083.34
2022-11-29T19:56:24.410Z,100079.91
2022-11-29T19:58:52.982Z,100079.44
2022-11-29T20:01:22.747Z,100085.94
2022-11-29T20:03:50.361Z,100088.44
2022-11-29T20:06:20.239Z,100089.25
2022-11-29T20:08:48.163Z,100083.25
2022-11-29T20:11:19.167Z,100089.09
2022-11-29T20:13:54.582Z,100097.34
2022-11-29T20:16:22.735Z,100100.59
2022-11-29T20:18:52.060Z,100087.13
2022-11-29T20:21:23.685Z,100089.63
2022-11-29T20:23:56.001Z,100084.44
2022-11-29T20:26:23.243Z,100090.69
2022-11-29T20:28:50.247Z,100098.09
2022-11-29T20:31:21.917Z,100107.94
2022-11-29T20:33:52.412Z,100109.59
2022-11-29T20:36:40.916Z,100124.28
2022-11-29T20:39:24.907Z,100123.06
2022-11-29T20:42:18.940Z,100125.03
2022-11-29T20:44:53.457Z,100125.69
2022-11-29T20:47:25.257Z,100119.28
2022-11-29T20:49:53.759Z,100122.88
2022-11-29T20:52:40.290Z,100120.84
2022-11-29T20:55:08.102Z,100120.50
2022-11-29T20:57:35.054Z,100121.13
2022-11-29T21:00:01.953Z,100119.06
2022-11-29T21:02:30.386Z,100120.75
2022-11-29T21:04:57.285Z,100115.34
2022-11-29T21:07:24.786Z,100117.50
2022-11-29T21:09:54.370Z,100115.47
2022-11-29T21:12:24.639Z,100117.31
2022-11-29T21:14:52.249Z,100118.59
2022-11-29T21:17:20.173Z,100119.44
2022-11-29T21:19:49.416Z,100117.41
2022-11-29T21:22:27.911Z,100128.56
2022-11-29T21:25:10.405Z,100113.88
2022-11-29T21:27:38.439Z,100110.34
2022-11-29T21:30:07.243Z,100123.44
2022-11-29T21:32:35.395Z,100126.78
2022-11-29T21:35:04.638Z,100123.06
2022-11-29T21:37:31.619Z,100120.19
2022-11-29T21:39:58.410Z,100127.25
2022-11-29T21:42:26.365Z,100124.38
2022-11-29T21:44:53.355Z,100132.25
2022-11-29T21:47:20.480Z,100128.06
2022-11-29T21:49:47.305Z,100135.31
2022-11-29T21:52:21.962Z,100131.59
2022-11-29T21:54:50.364Z,100129.75
2022-11-29T21:57:17.386Z,100134.09
2022-11-29T21:59:44.324Z,100130.38
2022-11-29T22:02:11.223Z,100132.44
2022-11-29T22:04:38.208Z,100128.06
2022-11-29T22:07:05.107Z,100129.94
2022-11-29T22:09:33.320Z,100122.88
2022-11-29T22:12:00.073Z,100127.44
2022-11-29T22:14:26.965Z,100128.25
2022-11-29T22:16:57.939Z,100130.88
2022-11-29T22:19:27.780Z,100128.38
2022-11-29T22:21:57.870Z,100126.88
2022-11-29T22:24:28.230Z,100134.75
2022-11-29T22:26:57.132Z,100123.44
2022-11-29T22:29:25.012Z,100124.94
2022-11-29T22:31:54.394Z,100127.44
2022-11-29T22:34:23.473Z,100131.59
2022-11-29T22:36:51.435Z,100132.44
2022-11-29T22:39:18.393Z,100128.25
2022-11-29T22:41:50.678Z,100130.56
2022-11-29T22:44:22.335Z,100133.44
2022-11-29T22:46:49.151Z,100130.13
2022-11-29T22:49:16.501Z,100133.63
2022-11-29T22:51:43.809Z,100124.75
2022-11-29T22:54:11.611Z,100128.63
2022-11-29T22:56:41.459Z,100136.88
2022-11-29T22:59:09.186Z,100131.25
2022-11-29T23:01:39.977Z,100137.63
2022-11-29T23:04:11.195Z,100143.00
2022-11-29T23:06:41.758Z,100138.28
2022-11-29T23:09:11.905Z,100133.75
2022-11-29T23:11:39.122Z,100128.75
2022-11-29T23:14:05.943Z,100134.50
2022-11-29T23:16:33.088Z,100143.00
2022-11-29T23:19:01.820Z,100137.00
2022-11-29T23:21:31.071Z,100137.81
2022-11-29T23:23:59.457Z,100133.09
2022-11-29T23:26:29.763Z,100140.06
2022-11-29T23:28:58.030Z,100146.06
2022-11-29T23:31:25.719Z,100138.00
2022-11-29T23:33:52.731Z,100144.03
2022-11-29T23:36:21.465Z,100129.84
2022-11-29T23:38:49.057Z,100138.56
2022-11-29T23:41:16.567Z,100135.88
2022-11-29T23:43:43.395Z,100137.53
2022-11-29T23:46:14.237Z,100138.94
2022-11-29T23:48:41.972Z,100132.00
2022-11-29T23:51:09.385Z,100133.38
2022-11-29T23:53:38.137Z,100135.41
2022-11-29T23:56:07.701Z,100137.09
2022-11-29T23:58:35.220Z,100133.47
